Time;durP1;ratioP1;P1;durP2;ratioP2;P2;SDS_P1;SDS_P2;PMS_P1;PMS_P2;Temp;Humidity;BMP_temperature;BMP_pressure;BME280_temperature;BME280_humidity;BME280_pressure;Samples;Min_cycle;Max_cycle;Signal;HPM_P1;HPM_P2
2021/11/28 00:01:18;;;;;;;16.73;11.50;;;2.10;99.90;;;;;;5023641;28;20208;-81
2021/11/28 00:03:45;;;;;;;15.60;10.30;;;2.10;99.90;;;;;;5021327;28;20632;-82
2021/11/28 00:06:19;;;;;;;18.07;11.40;;;2.10;99.90;;;;;;5014750;28;20227;-82
2021/11/28 00:09:14;;;;;;;16.23;11.93;;;2.10;99.90;;;;;;5026957;28;20714;-81
2021/11/28 00:11:46;;;;;;;16.70;11.03;;;2.10;99.90;;;;;;5009277;28;20203;-82
2021/11/28 00:14:15;;;;;;;20.03;11.90;;;2.00;99.90;;;;;;5022768;28;20237;-83
2021/11/28 00:16:42;;;;;;;16.67;10.70;;;2.10;99.90;;;;;;5018121;28;20243;-81
2021/11/28 00:19:09;;;;;;;18.60;12.13;;;2.10;99.90;;;;;;5024357;28;20746;-82
2021/11/28 00:21:36;;;;;;;16.47;12.10;;;2.10;99.90;;;;;;5014846;28;20301;-80
2021/11/28 00:24:03;;;;;;;16.87;10.67;;;2.10;99.90;;;;;;5039525;28;20745;-81
2021/11/28 00:26:30;;;;;;;18.40;12.63;;;2.00;99.90;;;;;;5018796;28;20231;-79
2021/11/28 00:28:59;;;;;;;20.27;11.67;;;2.00;99.90;;;;;;5010561;28;20238;-81
2021/11/28 00:31:27;;;;;;;18.53;12.30;;;2.00;99.90;;;;;;5019705;28;20208;-80
2021/11/28 00:33:53;;;;;;;15.47;11.23;;;2.00;99.90;;;;;;5030883;28;20191;-81
2021/11/28 00:36:20;;;;;;;19.37;12.90;;;2.00;99.90;;;;;;5030489;28;20223;-79
2021/11/28 00:38:47;;;;;;;18.47;12.17;;;2.00;99.90;;;;;;5014166;28;20398;-82
2021/11/28 00:41:14;;;;;;;16.20;11.93;;;2.00;99.90;;;;;;5015254;28;20212;-82
2021/11/28 00:43:40;;;;;;;17.87;11.77;;;2.00;99.90;;;;;;5008040;28;20227;-80
2021/11/28 00:46:07;;;;;;;19.00;12.07;;;2.00;99.90;;;;;;5014328;28;20318;-81
2021/11/28 00:48:37;;;;;;;18.17;12.47;;;2.00;99.90;;;;;;5011278;28;20207;-80
2021/11/28 00:51:35;;;;;;;17.53;12.20;;;2.00;99.90;;;;;;5015688;28;20223;-82
2021/11/28 00:54:01;;;;;;;18.83;12.30;;;2.00;99.90;;;;;;5040398;28;20191;-82
2021/11/28 00:56:28;;;;;;;18.20;11.57;;;1.90;99.90;;;;;;5014152;28;20325;-79
2021/11/28 00:58:55;;;;;;;18.03;12.20;;;1.90;99.90;;;;;;5013385;28;20211;-80
2021/11/28 01:01:22;;;;;;;20.53;13.13;;;2.00;99.90;;;;;;5014782;28;20210;-79
2021/11/28 01:03:50;;;;;;;17.40;11.10;;;2.00;99.90;;;;;;5010527;28;20954;-83
2021/11/28 01:06:16;;;;;;;18.40;12.53;;;2.00;99.90;;;;;;5013610;28;20231;-82
2021/11/28 01:08:43;;;;;;;19.87;12.60;;;2.00;99.90;;;;;;5000962;28;20204;-81
2021/11/28 01:11:10;;;;;;;19.97;11.93;;;2.00;99.90;;;;;;5020102;28;20230;-81
2021/11/28 01:13:38;;;;;;;19.17;12.47;;;2.00;99.90;;;;;;5006788;28;20665;-79
2021/11/28 01:16:05;;;;;;;20.33;12.77;;;2.00;99.90;;;;;;5013739;28;20227;-81
2021/11/28 01:18:33;;;;;;;19.23;12.43;;;2.00;99.90;;;;;;5012006;28;20318;-79
2021/11/28 01:21:01;;;;;;;19.03;13.37;;;2.00;99.90;;;;;;5031215;28;20257;-80
2021/11/28 01:23:28;;;;;;;19.90;12.77;;;2.00;99.90;;;;;;5004747;28;20223;-78
2021/11/28 01:25:55;;;;;;;20.20;12.80;;;2.00;99.90;;;;;;5015866;28;20412;-81
2021/11/28 01:28:21;;;;;;;17.70;12.80;;;2.10;99.90;;;;;;5015544;28;20204;-78
2021/11/28 01:30:48;;;;;;;20.77;12.50;;;2.00;99.90;;;;;;5005576;28;20615;-81
2021/11/28 01:33:15;;;;;;;21.93;12.73;;;2.10;99.90;;;;;;5014841;28;20234;-81
2021/11/28 01:35:42;;;;;;;18.53;12.67;;;2.10;99.90;;;;;;5011981;28;20219;-80
2021/11/28 01:38:11;;;;;;;16.77;12.00;;;2.10;99.90;;;;;;5004955;28;20202;-81
2021/11/28 01:40:38;;;;;;;19.20;12.87;;;2.10;99.90;;;;;;5015278;28;20254;-78
2021/11/28 01:43:07;;;;;;;20.90;13.63;;;2.10;99.90;;;;;;5014945;28;20269;-80
2021/11/28 01:45:36;;;;;;;21.43;11.67;;;2.10;99.90;;;;;;5005728;28;20295;-79
2021/11/28 01:48:05;;;;;;;16.40;11.43;;;2.10;99.90;;;;;;5013807;28;20230;-81
2021/11/28 01:50:56;;;;;;;19.03;12.47;;;2.10;99.90;;;;;;5010700;28;20262;-78
2021/11/28 01:53:28;;;;;;;18.10;11.73;;;2.20;99.90;;;;;;5011953;28;20623;-79
2021/11/28 01:55:55;;;;;;;18.57;11.73;;;2.10;99.90;;;;;;5027504;28;20807;-80
2021/11/28 01:58:29;;;;;;;19.40;12.40;;;2.10;99.90;;;;;;5012064;28;20563;-78
2021/11/28 02:00:58;;;;;;;14.87;10.73;;;2.10;99.90;;;;;;5005669;28;20437;-81
2021/11/28 02:03:26;;;;;;;18.20;12.40;;;2.10;99.90;;;;;;5016133;28;20238;-79
2021/11/28 02:05:57;;;;;;;18.73;11.83;;;2.10;99.90;;;;;;5011223;28;20259;-81
2021/11/28 02:08:26;;;;;;;19.17;11.73;;;2.10;99.90;;;;;;5012598;28;20214;-80
2021/11/28 02:10:52;;;;;;;18.53;11.73;;;2.00;99.90;;;;;;5005074;28;20484;-81
2021/11/28 02:13:23;;;;;;;20.23;11.93;;;2.10;99.90;;;;;;5015820;28;20230;-79
2021/11/28 02:15:50;;;;;;;15.97;11.40;;;2.10;99.90;;;;;;5012809;28;20250;-81
2021/11/28 02:18:17;;;;;;;18.73;11.43;;;2.10;99.90;;;;;;5003880;28;20283;-78
2021/11/28 02:20:46;;;;;;;17.43;12.00;;;2.10;99.90;;;;;;5016304;28;20242;-82
2021/11/28 02:23:13;;;;;;;18.97;12.23;;;2.20;99.90;;;;;;5011526;28;20503;-79
2021/11/28 02:25:40;;;;;;;23.47;13.20;;;2.20;99.90;;;;;;5001599;28;20326;-82
2021/11/28 02:28:08;;;;;;;23.57;12.63;;;2.10;99.90;;;;;;5017517;28;20198;-79
2021/11/28 02:30:35;;;;;;;22.77;13.00;;;2.10;99.90;;;;;;5031435;28;20263;-82
2021/11/28 02:33:02;;;;;;;22.10;13.40;;;2.10;99.90;;;;;;5009019;28;20208;-80
2021/11/28 02:35:33;;;;;;;24.57;13.07;;;2.10;99.90;;;;;;5010608;28;20227;-81
2021/11/28 02:38:02;;;;;;;23.97;13.47;;;2.10;99.90;;;;;;5013651;28;20207;-79
2021/11/28 02:40:31;;;;;;;20.33;13.10;;;2.10;99.90;;;;;;5011965;28;20692;-82
2021/11/28 02:42:58;;;;;;;20.77;13.20;;;2.20;99.90;;;;;;5015939;28;20241;-82
2021/11/28 02:45:27;;;;;;;24.87;14.17;;;2.20;99.90;;;;;;5013807;28;20224;-82
2021/11/28 02:47:55;;;;;;;21.87;13.10;;;2.20;99.90;;;;;;5027670;28;20218;-81
2021/11/28 02:50:23;;;;;;;20.77;12.40;;;2.20;99.90;;;;;;5026334;28;20314;-82
2021/11/28 02:52:54;;;;;;;20.57;12.47;;;2.20;99.90;;;;;;5022886;28;20211;-82
2021/11/28 02:55:24;;;;;;;22.73;13.53;;;2.20;99.90;;;;;;5003779;28;20318;-79
2021/11/28 02:57:52;;;;;;;21.37;13.40;;;2.20;99.90;;;;;;5011137;28;20210;-82
2021/11/28 03:00:19;;;;;;;24.90;13.40;;;2.30;99.90;;;;;;5015674;28;20210;-79
2021/11/28 03:02:46;;;;;;;23.80;13.40;;;2.30;99.90;;;;;;5013604;28;20665;-81
2021/11/28 03:05:21;;;;;;;20.97;13.43;;;2.20;99.90;;;;;;5010402;28;20239;-82
2021/11/28 03:07:48;;;;;;;23.43;13.03;;;2.20;99.90;;;;;;5013970;28;20567;-80
2021/11/28 03:10:35;;;;;;;24.47;13.70;;;2.30;99.90;;;;;;5011397;28;20284;-79
2021/11/28 03:13:04;;;;;;;22.40;13.53;;;2.30;99.90;;;;;;5010824;28;20225;-80
2021/11/28 03:15:31;;;;;;;26.90;14.70;;;2.30;99.90;;;;;;5022941;28;20925;-83
2021/11/28 03:18:00;;;;;;;26.17;13.90;;;2.30;99.90;;;;;;5016922;28;20208;-79
2021/11/28 03:20:28;;;;;;;25.83;14.43;;;2.30;99.90;;;;;;5002415;28;20230;-82
2021/11/28 03:22:55;;;;;;;23.47;13.97;;;2.30;99.90;;;;;;5011754;28;20234;-82
2021/11/28 03:25:24;;;;;;;25.43;14.33;;;2.30;99.90;;;;;;5016115;28;20235;-81
2021/11/28 03:27:52;;;;;;;28.80;14.37;;;2.30;99.90;;;;;;4996419;28;21034;-80
2021/11/28 03:30:22;;;;;;;27.27;15.47;;;2.40;99.90;;;;;;5018644;28;20577;-82
2021/11/28 03:33:08;;;;;;;23.57;14.00;;;2.40;99.90;;;;;;5040959;28;20432;-82
2021/11/28 03:35:53;;;;;;;27.93;14.30;;;2.40;99.90;;;;;;5019486;28;20574;-81
2021/11/28 03:38:20;;;;;;;26.10;14.37;;;2.40;99.90;;;;;;5017531;28;20212;-82
2021/11/28 03:40:47;;;;;;;23.67;15.03;;;2.40;99.90;;;;;;5012109;28;20254;-80
2021/11/28 03:43:15;;;;;;;24.00;14.77;;;2.50;99.90;;;;;;5006815;28;20268;-82
2021/11/28 03:45:42;;;;;;;28.90;15.77;;;2.50;99.90;;;;;;5031815;28;20230;-81
2021/11/28 03:48:11;;;;;;;24.90;15.03;;;2.50;99.90;;;;;;5019256;28;20322;-83
2021/11/28 03:50:42;;;;;;;26.43;15.20;;;2.50;99.90;;;;;;5018309;28;20196;-81
2021/11/28 03:53:10;;;;;;;25.73;14.83;;;2.50;99.90;;;;;;5017150;28;20245;-82
2021/11/28 03:55:37;;;;;;;27.30;14.43;;;2.50;99.90;;;;;;5014524;28;20299;-80
2021/11/28 03:58:04;;;;;;;25.70;13.43;;;2.50;99.90;;;;;;5004842;28;20571;-84
2021/11/28 04:00:33;;;;;;;24.03;15.23;;;2.50;99.90;;;;;;5022023;28;20828;-82
2021/11/28 04:03:08;;;;;;;23.93;13.90;;;2.50;99.90;;;;;;5014323;28;20476;-82
2021/11/28 04:05:35;;;;;;;23.10;13.30;;;2.50;99.90;;;;;;5010079;28;20231;-80
2021/11/28 04:08:02;;;;;;;25.80;14.13;;;2.50;99.90;;;;;;5014967;28;20299;-83
2021/11/28 04:10:29;;;;;;;26.97;13.33;;;2.40;99.90;;;;;;5015347;28;20252;-82
2021/11/28 04:12:58;;;;;;;20.40;13.40;;;2.40;99.90;;;;;;5002323;28;20922;-82
2021/11/28 04:15:25;;;;;;;20.93;14.13;;;2.50;99.90;;;;;;5036963;28;20230;-82
2021/11/28 04:18:22;;;;;;;23.97;13.77;;;2.50;99.90;;;;;;5028274;28;20745;-83
2021/11/28 04:20:50;;;;;;;22.27;12.83;;;2.50;99.90;;;;;;5009037;28;20664;-80
2021/11/28 04:23:18;;;;;;;24.77;14.17;;;2.50;99.90;;;;;;5016023;28;20204;-82
2021/11/28 04:25:46;;;;;;;20.03;12.53;;;2.50;99.90;;;;;;5005061;28;20646;-82
2021/11/28 04:28:13;;;;;;;22.23;13.27;;;2.50;99.90;;;;;;5022693;28;20219;-82
2021/11/28 04:30:40;;;;;;;20.97;13.50;;;2.50;99.90;;;;;;5004144;28;20792;-81
2021/11/28 04:33:10;;;;;;;21.27;13.93;;;2.50;99.90;;;;;;5021211;28;20195;-82
2021/11/28 04:35:38;;;;;;;18.47;12.60;;;2.50;99.90;;;;;;5017036;28;20261;-80
2021/11/28 04:38:06;;;;;;;22.33;13.30;;;2.50;99.90;;;;;;5012630;28;20772;-82
2021/11/28 04:40:34;;;;;;;22.63;13.80;;;2.50;99.90;;;;;;5012334;28;20594;-80
2021/11/28 04:43:03;;;;;;;24.93;13.80;;;2.50;99.90;;;;;;5016406;28;20203;-82
2021/11/28 04:45:30;;;;;;;21.07;13.73;;;2.50;99.90;;;;;;5003466;28;20224;-81
2021/11/28 04:48:01;;;;;;;20.27;12.80;;;2.50;99.90;;;;;;5019020;28;20198;-83
2021/11/28 04:50:29;;;;;;;18.90;12.30;;;2.50;99.90;;;;;;5017128;28;20204;-80
2021/11/28 04:52:57;;;;;;;21.03;13.40;;;2.50;99.90;;;;;;5027614;28;20224;-82
2021/11/28 04:55:23;;;;;;;22.00;13.07;;;2.50;99.90;;;;;;5015028;28;20228;-80
2021/11/28 04:57:51;;;;;;;22.37;13.60;;;2.50;99.90;;;;;;5011215;28;20211;-82
2021/11/28 05:00:20;;;;;;;20.70;11.83;;;2.50;99.90;;;;;;5013901;28;20356;-83
2021/11/28 05:02:57;;;;;;;20.33;13.13;;;2.50;99.90;;;;;;5011897;28;20865;-82
2021/11/28 05:05:25;;;;;;;25.53;13.37;;;2.50;99.90;;;;;;5018292;28;20307;-80
2021/11/28 05:07:52;;;;;;;23.83;12.57;;;2.50;99.90;;;;;;5019055;28;20295;-82
2021/11/28 05:10:20;;;;;;;20.20;13.20;;;2.50;99.90;;;;;;5014504;28;20206;-80
2021/11/28 05:12:53;;;;;;;23.40;14.10;;;2.50;99.90;;;;;;5013504;28;20274;-81
2021/11/28 05:15:21;;;;;;;20.30;12.23;;;2.50;99.90;;;;;;5014779;28;20216;-82
2021/11/28 05:18:06;;;;;;;18.77;12.47;;;2.50;99.90;;;;;;5032554;28;20264;-82
2021/11/28 05:20:35;;;;;;;20.83;12.97;;;2.50;99.90;;;;;;5012108;28;20235;-80
2021/11/28 05:23:02;;;;;;;22.10;13.83;;;2.50;99.90;;;;;;5016512;28;20219;-82
2021/11/28 05:25:30;;;;;;;20.97;13.10;;;2.50;99.90;;;;;;5004428;28;20279;-80
2021/11/28 05:27:57;;;;;;;21.73;13.53;;;2.50;99.90;;;;;;5011818;28;20295;-82
2021/11/28 05:30:24;;;;;;;19.93;12.47;;;2.50;99.90;;;;;;5011877;28;20203;-80
2021/11/28 05:33:13;;;;;;;24.07;13.90;;;2.50;99.90;;;;;;4983299;28;20219;-82
2021/11/28 05:36:09;;;;;;;21.00;12.53;;;2.50;99.90;;;;;;4971051;28;20715;-82
2021/11/28 05:38:50;;;;;;;20.30;12.87;;;2.50;99.90;;;;;;5004350;28;20422;-81
2021/11/28 05:41:18;;;;;;;20.77;12.77;;;2.50;99.90;;;;;;5012883;28;20203;-83
2021/11/28 05:43:47;;;;;;;19.10;12.37;;;2.50;99.90;;;;;;5009397;28;20266;-81
2021/11/28 05:46:14;;;;;;;19.83;13.20;;;2.50;99.90;;;;;;5006519;28;20223;-82
2021/11/28 05:49:04;;;;;;;19.20;12.17;;;2.50;99.90;;;;;;5029351;28;20200;-83
2021/11/28 05:51:44;;;;;;;20.60;12.10;;;2.50;99.90;;;;;;5003756;28;20633;-81
2021/11/28 05:54:11;;;;;;;18.17;11.73;;;2.50;99.90;;;;;;5028374;28;20294;-81
2021/11/28 05:56:39;;;;;;;17.23;11.47;;;2.50;99.90;;;;;;5003361;28;20216;-81
2021/11/28 05:59:06;;;;;;;17.57;12.17;;;2.50;99.90;;;;;;5032807;28;20198;-80
2021/11/28 06:01:33;;;;;;;16.43;10.93;;;2.50;99.90;;;;;;5016518;28;20195;-81
2021/11/28 06:04:02;;;;;;;17.20;11.83;;;2.50;99.90;;;;;;5004936;28;20215;-80
2021/11/28 06:06:52;;;;;;;17.77;12.07;;;2.50;99.90;;;;;;5031358;28;20223;-82
2021/11/28 06:09:28;;;;;;;17.47;11.37;;;2.50;99.90;;;;;;5005209;28;20192;-82
2021/11/28 06:11:57;;;;;;;19.37;12.47;;;2.50;99.90;;;;;;5011761;28;20554;-83
2021/11/28 06:14:24;;;;;;;16.30;11.27;;;2.50;99.90;;;;;;5005250;28;20218;-81
2021/11/28 06:17:09;;;;;;;17.67;11.50;;;2.50;99.90;;;;;;5022767;28;20210;-80
2021/11/28 06:19:56;;;;;;;18.63;12.30;;;2.50;99.90;;;;;;5028604;28;20208;-81
2021/11/28 06:22:23;;;;;;;20.90;11.67;;;2.50;99.90;;;;;;5027391;28;20203;-81
2021/11/28 06:24:51;;;;;;;17.50;11.07;;;2.50;99.90;;;;;;5010836;28;20207;-82
2021/11/28 06:27:29;;;;;;;21.07;11.93;;;2.60;99.90;;;;;;5005409;28;20221;-81
2021/11/28 06:29:55;;;;;;;19.47;12.60;;;2.50;99.90;;;;;;5017741;28;20210;-80
2021/11/28 06:32:42;;;;;;;19.80;12.47;;;2.60;99.90;;;;;;5024444;28;20211;-81
2021/11/28 06:35:32;;;;;;;17.43;11.53;;;2.60;99.90;;;;;;5017069;28;20287;-81
2021/11/28 06:38:24;;;;;;;18.47;12.13;;;2.60;99.90;;;;;;5008498;28;20244;-82
2021/11/28 06:41:11;;;;;;;18.60;11.97;;;2.60;99.90;;;;;;5021612;28;20210;-80
2021/11/28 06:43:39;;;;;;;20.20;13.13;;;2.60;99.90;;;;;;5010340;28;20657;-82
2021/11/28 06:46:06;;;;;;;18.07;12.43;;;2.60;99.90;;;;;;5006090;28;20218;-80
2021/11/28 06:48:33;;;;;;;17.43;12.93;;;2.70;99.90;;;;;;5012220;28;20203;-82
2021/11/28 06:51:20;;;;;;;20.00;11.23;;;2.70;99.90;;;;;;4988577;28;20211;-82
2021/11/28 06:53:46;;;;;;;21.33;13.13;;;2.70;99.90;;;;;;5002575;28;20231;-82
2021/11/28 06:56:32;;;;;;;17.93;12.33;;;2.70;99.90;;;;;;5016304;28;20337;-80
2021/11/28 06:59:03;;;;;;;20.43;12.70;;;2.70;99.90;;;;;;5025743;28;20204;-80
2021/11/28 07:01:30;;;;;;;16.27;11.40;;;2.70;99.90;;;;;;5010049;28;20821;-81
2021/11/28 07:04:17;;;;;;;16.87;11.70;;;2.80;99.90;;;;;;5024607;28;20204;-80
2021/11/28 07:07:02;;;;;;;20.20;12.67;;;2.80;99.90;;;;;;5006556;28;20249;-82
2021/11/28 07:09:30;;;;;;;21.53;14.00;;;2.80;99.90;;;;;;5009954;28;20302;-82
2021/11/28 07:11:57;;;;;;;19.10;12.47;;;2.80;99.90;;;;;;4999343;28;20204;-81
2021/11/28 07:14:25;;;;;;;20.13;13.23;;;2.80;99.90;;;;;;5010632;28;20227;-82
2021/11/28 07:16:51;;;;;;;18.37;12.63;;;2.80;99.90;;;;;;5003311;28;20220;-80
2021/11/28 07:19:18;;;;;;;17.93;12.30;;;2.80;99.90;;;;;;5004986;28;20197;-83
2021/11/28 07:22:04;;;;;;;19.43;13.47;;;2.90;99.90;;;;;;5011174;28;20208;-82
2021/11/28 07:24:32;;;;;;;17.37;11.97;;;2.90;99.90;;;;;;5003481;28;20625;-81
2021/11/28 07:26:59;;;;;;;19.07;13.10;;;2.90;99.90;;;;;;4994646;28;20422;-81
2021/11/28 07:29:27;;;;;;;17.77;12.50;;;2.90;99.90;;;;;;5012850;28;20227;-82
2021/11/28 07:31:54;;;;;;;15.53;11.83;;;2.90;99.90;;;;;;5004274;28;20295;-79
2021/11/28 07:34:39;;;;;;;18.90;13.17;;;2.90;99.90;;;;;;5027442;28;20243;-80
2021/11/28 07:37:30;;;;;;;20.50;12.53;;;2.90;99.90;;;;;;4997837;28;20200;-81
2021/11/28 07:39:56;;;;;;;15.60;11.20;;;3.00;99.90;;;;;;4990901;28;20520;-81
2021/11/28 07:42:24;;;;;;;18.60;12.13;;;3.00;99.90;;;;;;5008127;28;20212;-81
2021/11/28 07:45:00;;;;;;;21.27;12.77;;;3.00;99.90;;;;;;5011762;28;20238;-82
2021/11/28 07:47:46;;;;;;;18.20;12.90;;;3.10;99.90;;;;;;5024212;28;20227;-81
2021/11/28 07:50:21;;;;;;;18.27;12.37;;;3.10;99.90;;;;;;5008087;28;20215;-82
2021/11/28 07:52:50;;;;;;;18.07;12.03;;;3.10;99.90;;;;;;5013108;28;20756;-79
2021/11/28 07:55:24;;;;;;;18.80;11.97;;;3.10;99.90;;;;;;5012177;28;20239;-81
2021/11/28 07:58:14;;;;;;;17.83;11.47;;;3.10;99.90;;;;;;4980829;28;20409;-81
2021/11/28 08:00:57;;;;;;;18.40;11.90;;;3.20;99.90;;;;;;5006827;28;20291;-78
2021/11/28 08:03:32;;;;;;;16.47;11.97;;;3.20;99.90;;;;;;5005004;28;20269;-78
2021/11/28 08:06:17;;;;;;;18.63;12.40;;;3.20;99.90;;;;;;5027155;28;20223;-79
2021/11/28 08:08:52;;;;;;;19.30;13.53;;;3.20;99.90;;;;;;4993914;28;20486;-79
2021/11/28 08:11:31;;;;;;;21.87;13.97;;;3.30;99.90;;;;;;5013032;28;20633;-78
2021/11/28 08:13:59;;;;;;;16.93;12.07;;;3.30;99.90;;;;;;5012069;28;20216;-78
2021/11/28 08:16:28;;;;;;;21.67;13.87;;;3.30;99.90;;;;;;5009684;28;20222;-78
2021/11/28 08:18:55;;;;;;;19.07;13.87;;;3.30;99.90;;;;;;5013123;28;20216;-79
2021/11/28 08:21:26;;;;;;;20.80;13.47;;;3.30;99.90;;;;;;5013973;28;20577;-78
2021/11/28 08:23:53;;;;;;;21.33;14.10;;;3.30;99.90;;;;;;5014891;28;20227;-80
2021/11/28 08:26:19;;;;;;;21.97;13.87;;;3.30;99.90;;;;;;5015707;28;20222;-79
2021/11/28 08:28:46;;;;;;;19.23;14.03;;;3.40;99.90;;;;;;5034829;28;20207;-79
2021/11/28 08:31:13;;;;;;;20.20;13.93;;;3.40;99.90;;;;;;5010307;28;22717;-79
2021/11/28 08:33:44;;;;;;;18.87;13.50;;;3.40;99.90;;;;;;5027994;28;20219;-79
2021/11/28 08:36:23;;;;;;;19.23;13.03;;;3.40;99.90;;;;;;5002634;28;20354;-81
2021/11/28 08:38:52;;;;;;;23.37;14.00;;;3.40;99.90;;;;;;5024974;28;20209;-79
2021/11/28 08:41:22;;;;;;;17.13;13.03;;;3.50;99.90;;;;;;5002826;28;20214;-81
2021/11/28 08:43:50;;;;;;;21.33;13.50;;;3.50;99.90;;;;;;5034863;28;20213;-78
2021/11/28 08:46:17;;;;;;;19.87;13.87;;;3.50;99.90;;;;;;5019533;28;20246;-79
2021/11/28 08:48:46;;;;;;;19.53;13.53;;;3.50;99.90;;;;;;5017562;28;20196;-80
2021/11/28 08:51:13;;;;;;;17.40;12.80;;;3.60;99.90;;;;;;5015666;28;20235;-79
2021/11/28 08:53:41;;;;;;;19.27;13.43;;;3.60;99.90;;;;;;5002514;28;20219;-78
2021/11/28 08:56:08;;;;;;;19.83;13.47;;;3.60;99.90;;;;;;5001623;28;20238;-79
2021/11/28 08:58:35;;;;;;;19.27;13.67;;;3.60;99.90;;;;;;5015149;28;20235;-85
2021/11/28 09:01:02;;;;;;;18.90;12.77;;;3.60;99.90;;;;;;5009222;28;20236;-78
2021/11/28 09:03:29;;;;;;;17.30;13.43;;;3.70;99.90;;;;;;5032778;28;20200;-79
2021/11/28 09:05:57;;;;;;;20.57;13.33;;;3.70;99.90;;;;;;5003278;28;20247;-80
2021/11/28 09:08:24;;;;;;;18.03;12.77;;;3.70;99.90;;;;;;5003148;28;20599;-78
2021/11/28 09:10:51;;;;;;;17.53;12.67;;;3.70;99.90;;;;;;5012127;28;20204;-78
2021/11/28 09:13:18;;;;;;;17.27;12.70;;;3.70;99.90;;;;;;5024398;28;20230;-77
2021/11/28 09:15:45;;;;;;;17.67;13.03;;;3.70;99.90;;;;;;5009049;28;20250;-78
2021/11/28 09:18:15;;;;;;;18.23;12.70;;;3.70;99.90;;;;;;5033041;28;20203;-78
2021/11/28 09:20:44;;;;;;;18.23;12.37;;;3.70;99.90;;;;;;5007581;28;20208;-79
2021/11/28 09:25:57;;;;;;;17.30;12.03;;;3.80;99.90;;;;;;5022214;28;20223;-77
2021/11/28 09:28:24;;;;;;;16.20;12.27;;;3.80;99.90;;;;;;5018633;28;20208;-81
2021/11/28 09:30:51;;;;;;;15.67;12.17;;;3.80;99.90;;;;;;5016480;28;20210;-78
2021/11/28 09:33:18;;;;;;;19.03;12.90;;;3.80;99.90;;;;;;5006523;28;20200;-80
2021/11/28 09:35:44;;;;;;;20.97;12.77;;;3.80;99.90;;;;;;5017436;28;20701;-81
2021/11/28 09:38:12;;;;;;;21.20;13.43;;;3.80;99.90;;;;;;5007495;28;20203;-82
2021/11/28 09:40:44;;;;;;;17.97;12.27;;;3.80;99.90;;;;;;5017342;28;20230;-81
2021/11/28 09:43:14;;;;;;;17.60;12.43;;;3.80;99.90;;;;;;5002296;28;20265;-83
2021/11/28 09:45:43;;;;;;;15.77;11.43;;;3.80;99.90;;;;;;5023621;28;20261;-80
2021/11/28 09:48:11;;;;;;;18.07;13.13;;;3.80;99.90;;;;;;5022732;28;20211;-81
2021/11/28 09:50:38;;;;;;;18.47;13.50;;;3.80;99.90;;;;;;4998819;28;20243;-81
2021/11/28 09:53:06;;;;;;;15.23;11.43;;;3.90;99.90;;;;;;5019032;28;20199;-82
2021/11/28 09:55:35;;;;;;;17.20;11.93;;;3.90;99.90;;;;;;5004276;28;20223;-85
2021/11/28 09:58:03;;;;;;;16.50;11.77;;;3.90;99.90;;;;;;5015510;28;20209;-79
2021/11/28 10:00:31;;;;;;;17.37;13.00;;;3.90;99.90;;;;;;5023477;28;20393;-82
2021/11/28 10:02:58;;;;;;;18.23;12.63;;;3.90;99.90;;;;;;5003976;28;20208;-81
2021/11/28 10:05:25;;;;;;;17.60;12.33;;;3.90;99.90;;;;;;5001210;28;20508;-80
2021/11/28 10:07:52;;;;;;;17.37;11.70;;;4.00;99.90;;;;;;5028401;28;20219;-79
2021/11/28 10:10:23;;;;;;;17.63;11.90;;;4.00;99.90;;;;;;5027435;28;20204;-78
2021/11/28 10:12:52;;;;;;;14.83;11.07;;;4.00;99.90;;;;;;5008119;28;20204;-79
2021/11/28 10:15:23;;;;;;;16.10;11.57;;;4.00;99.90;;;;;;5005969;28;20764;-81
2021/11/28 10:17:50;;;;;;;17.87;12.23;;;4.10;99.90;;;;;;5030186;28;20219;-79
2021/11/28 10:20:20;;;;;;;17.23;11.40;;;4.10;99.90;;;;;;5011736;28;20210;-78
2021/11/28 10:22:51;;;;;;;18.50;12.07;;;4.10;99.90;;;;;;5011430;28;20657;-83
2021/11/28 10:25:24;;;;;;;14.70;9.97;;;4.10;99.90;;;;;;5033598;28;20288;-80
2021/11/28 10:27:54;;;;;;;12.93;10.37;;;4.00;99.90;;;;;;5008721;28;20212;-82
2021/11/28 10:30:34;;;;;;;12.87;10.37;;;3.90;99.90;;;;;;5029126;28;20210;-80
2021/11/28 10:33:07;;;;;;;12.53;9.80;;;3.90;99.90;;;;;;5032623;28;20286;-81
2021/11/28 10:35:34;;;;;;;12.47;10.13;;;3.90;99.90;;;;;;5007980;28;20933;-82
2021/11/28 10:38:11;;;;;;;12.87;9.73;;;3.90;99.90;;;;;;5033927;28;20556;-81
2021/11/28 10:40:45;;;;;;;14.17;9.97;;;3.90;99.90;;;;;;5033839;28;20321;-82
2021/11/28 10:43:15;;;;;;;12.63;9.30;;;4.00;99.90;;;;;;5016691;28;20207;-80
2021/11/28 10:45:47;;;;;;;12.47;9.97;;;4.00;99.90;;;;;;5006833;28;20334;-82
2021/11/28 10:48:15;;;;;;;13.00;9.60;;;3.90;99.90;;;;;;5014552;28;20270;-80
2021/11/28 10:50:42;;;;;;;15.20;10.23;;;3.90;99.90;;;;;;5031448;28;20657;-82
2021/11/28 10:53:11;;;;;;;12.37;10.13;;;3.90;99.90;;;;;;5006884;28;20283;-80
2021/11/28 10:55:40;;;;;;;12.30;9.53;;;3.90;99.90;;;;;;5030407;28;20219;-82
2021/11/28 10:58:09;;;;;;;14.80;11.33;;;3.90;99.90;;;;;;5011539;28;20204;-82
2021/11/28 11:00:39;;;;;;;14.17;9.90;;;4.00;99.90;;;;;;5023135;28;25002;-81
2021/11/28 11:03:19;;;;;;;14.27;10.07;;;4.00;99.90;;;;;;5012812;28;20684;-83
2021/11/28 11:05:50;;;;;;;15.03;11.03;;;4.00;99.90;;;;;;5004816;28;20598;-82
2021/11/28 11:08:18;;;;;;;15.83;12.27;;;4.10;99.90;;;;;;5004886;28;20211;-82
2021/11/28 11:10:46;;;;;;;16.47;10.67;;;4.20;99.90;;;;;;5008035;28;20307;-82
2021/11/28 11:13:17;;;;;;;15.57;11.63;;;4.20;99.90;;;;;;5033021;28;20226;-82
2021/11/28 11:15:47;;;;;;;15.73;11.33;;;4.20;99.90;;;;;;5048828;28;20223;-82
2021/11/28 11:18:15;;;;;;;15.27;11.07;;;4.20;99.90;;;;;;5043248;28;20211;-82
2021/11/28 11:20:44;;;;;;;14.60;11.07;;;4.20;99.90;;;;;;5043224;28;20193;-82
2021/11/28 11:23:37;;;;;;;16.63;12.07;;;4.20;99.90;;;;;;5042680;28;20227;-82
2021/11/28 11:26:21;;;;;;;15.70;11.77;;;4.20;99.90;;;;;;5017257;28;20251;-82
2021/11/28 11:29:00;;;;;;;16.97;10.63;;;4.30;99.90;;;;;;5008117;28;20227;-81
2021/11/28 11:31:28;;;;;;;17.13;11.37;;;4.30;99.90;;;;;;5007436;28;21052;-82
2021/11/28 11:33:54;;;;;;;15.80;10.67;;;4.30;99.90;;;;;;5018128;28;20212;-82
2021/11/28 11:36:23;;;;;;;16.07;11.23;;;4.30;99.90;;;;;;5026953;28;20207;-82
2021/11/28 11:38:50;;;;;;;16.30;12.13;;;4.40;99.90;;;;;;5031460;28;20206;-82
2021/11/28 11:41:18;;;;;;;16.83;12.07;;;4.40;99.90;;;;;;5023929;28;20204;-82
2021/11/28 11:43:46;;;;;;;14.63;10.83;;;4.50;99.90;;;;;;5013591;28;20556;-82
2021/11/28 11:46:14;;;;;;;19.47;12.07;;;4.40;99.90;;;;;;5009698;28;20575;-82
2021/11/28 11:48:47;;;;;;;16.80;11.57;;;4.40;99.90;;;;;;5011513;28;20212;-82
2021/11/28 11:51:14;;;;;;;17.60;11.97;;;4.50;99.90;;;;;;5010361;28;20299;-82
2021/11/28 11:53:41;;;;;;;15.27;11.37;;;4.50;99.90;;;;;;5027504;28;20727;-83
2021/11/28 11:56:17;;;;;;;18.27;12.90;;;4.60;99.90;;;;;;5010443;28;20220;-82
2021/11/28 11:58:51;;;;;;;16.77;11.37;;;4.60;99.90;;;;;;5012261;28;20193;-83
2021/11/28 12:01:27;;;;;;;18.30;12.13;;;4.60;99.90;;;;;;5024122;28;20204;-81
2021/11/28 12:03:57;;;;;;;18.70;12.43;;;4.60;99.90;;;;;;5028282;28;20204;-84
2021/11/28 12:06:45;;;;;;;17.40;11.97;;;4.60;99.90;;;;;;5007656;28;20611;-84
2021/11/28 12:09:23;;;;;;;16.20;12.50;;;4.60;99.90;;;;;;5010011;28;20254;-81
2021/11/28 12:11:57;;;;;;;18.40;12.50;;;4.60;99.90;;;;;;5006432;28;20294;-83
2021/11/28 12:14:24;;;;;;;15.17;12.10;;;4.60;99.90;;;;;;5020504;28;20191;-84
2021/11/28 12:16:51;;;;;;;16.10;12.03;;;4.50;99.90;;;;;;5008267;28;20220;-81
2021/11/28 12:19:41;;;;;;;16.87;12.00;;;4.50;99.90;;;;;;5021429;28;20199;-81
2021/11/28 12:22:28;;;;;;;16.97;11.80;;;4.50;99.90;;;;;;5002381;28;20215;-80
2021/11/28 12:25:35;;;;;;;16.17;11.13;;;4.50;99.90;;;;;;5013495;28;20223;-81
2021/11/28 12:28:26;;;;;;;17.03;11.10;;;4.50;99.90;;;;;;4991986;28;20685;-80
2021/11/28 12:30:54;;;;;;;15.40;11.47;;;4.50;99.90;;;;;;5011590;28;20303;-84
2021/11/28 12:33:41;;;;;;;16.30;11.63;;;4.50;99.90;;;;;;5015950;28;20204;-81
2021/11/28 12:36:08;;;;;;;16.07;11.50;;;4.50;99.90;;;;;;5028412;28;20648;-80
2021/11/28 12:38:49;;;;;;;16.53;11.27;;;4.50;99.90;;;;;;5041640;28;20204;-81
2021/11/28 12:41:17;;;;;;;14.87;10.50;;;4.40;99.90;;;;;;5006927;28;20250;-80
2021/11/28 12:44:06;;;;;;;17.60;11.40;;;4.50;99.90;;;;;;5045834;28;20187;-83
2021/11/28 12:46:40;;;;;;;18.27;10.90;;;4.50;99.90;;;;;;5029339;28;20429;-81
2021/11/28 12:49:25;;;;;;;18.60;11.80;;;4.50;99.90;;;;;;5049211;28;20215;-80
2021/11/28 12:51:52;;;;;;;13.43;10.13;;;4.50;99.90;;;;;;5019399;28;20204;-81
2021/11/28 12:54:25;;;;;;;16.80;11.40;;;4.40;99.90;;;;;;5026388;28;20214;-81
2021/11/28 12:57:26;;;;;;;15.23;11.07;;;4.40;99.90;;;;;;5017455;28;20219;-80
2021/11/28 13:00:15;;;;;;;17.57;11.03;;;4.40;99.90;;;;;;5031927;28;20198;-80
2021/11/28 13:02:44;;;;;;;19.47;10.83;;;4.40;99.90;;;;;;5047930;28;20256;-84